Terminal Aerodrome Forecast
Issued by NWS

Home | Current Version | Previous Version | Text Only | Print | Product List | Glossary On
Versions: 1 2 3 4 5 6 7 8 9 10 11 12 13 14 15 16 17 18 19 20 21
365
FTUS42 KTAE 192323
TAFVLD
TAF
KVLD 192323Z 2000/2024 13005KT P6SM SCT040
     FM200600 00000KT 4SM BR BKN040
     FM200900 00000KT 2SM BR OVC006
     FM201500 12007KT P6SM SCT007 BKN015
     FM201800 14007KT P6SM BKN040=

USA.gov is the U.S. government's official web portal to all federal, state and local government web resources and services.